createdAt,value
2024-02-13T00:02:29.786Z,2.60
2024-02-13T00:05:31.508Z,2.67
2024-02-13T00:08:44.104Z,2.75
2024-02-13T00:11:47.339Z,2.63
2024-02-13T00:14:50.406Z,2.42
2024-02-13T00:17:52.842Z,2.75
2024-02-13T00:20:54.738Z,2.67
2024-02-13T00:23:56.605Z,2.50
2024-02-13T00:26:58.454Z,2.70
2024-02-13T00:30:01.614Z,3.10
2024-02-13T00:33:03.494Z,3.25
2024-02-13T00:36:05.554Z,3.03
2024-02-13T00:39:07.199Z,2.60
2024-02-13T00:42:08.852Z,2.70
2024-02-13T00:45:12.412Z,2.35
2024-02-13T00:48:14.579Z,3.10
2024-02-13T00:51:16.298Z,3.00
2024-02-13T00:54:17.953Z,3.05
2024-02-13T00:57:19.634Z,2.80
2024-02-13T01:00:22.888Z,2.92
2024-02-13T01:03:24.537Z,3.00
2024-02-13T01:06:26.235Z,2.85
2024-02-13T01:09:27.874Z,2.58
2024-02-13T01:12:29.546Z,4.10
2024-02-13T01:15:32.577Z,2.92
2024-02-13T01:18:34.295Z,3.30
2024-02-13T01:21:35.994Z,3.25
2024-02-13T01:24:37.666Z,3.13
2024-02-13T01:27:39.303Z,3.40
2024-02-13T01:30:42.288Z,3.28
2024-02-13T01:33:44.985Z,2.85
2024-02-13T01:36:46.707Z,3.42
2024-02-13T01:39:48.382Z,3.38
2024-02-13T01:42:51.013Z,3.40
2024-02-13T01:45:54.201Z,3.28
2024-02-13T01:48:56.234Z,3.28
2024-02-13T01:52:00.295Z,3.35
2024-02-13T01:55:03.530Z,4.28
2024-02-13T01:58:06.694Z,3.40
2024-02-13T02:01:09.814Z,3.83
2024-02-13T02:04:12.859Z,3.03
2024-02-13T02:07:15.220Z,3.65
2024-02-13T02:10:17.082Z,3.75
2024-02-13T02:13:18.868Z,3.17
2024-02-13T02:16:21.875Z,3.47
2024-02-13T02:19:23.599Z,3.35
2024-02-13T02:22:25.344Z,4.10
2024-02-13T02:25:28.415Z,3.17
2024-02-13T02:28:30.231Z,3.45
2024-02-13T02:31:31.868Z,3.53
2024-02-13T02:34:33.691Z,3.70
2024-02-13T02:37:35.376Z,3.65
2024-02-13T02:40:38.420Z,3.67
2024-02-13T02:43:40.146Z,3.92
2024-02-13T02:46:42.318Z,4.43
2024-02-13T02:49:44.169Z,3.42
2024-02-13T02:52:45.903Z,3.60
2024-02-13T02:55:49.430Z,9.85
2024-02-13T02:58:51.096Z,6.85
2024-02-13T03:01:52.775Z,10.95
2024-02-13T03:04:54.984Z,4.55
2024-02-13T03:07:56.644Z,3.78
2024-02-13T03:10:59.958Z,3.72
2024-02-13T03:14:01.636Z,4.22
2024-02-13T03:17:03.546Z,4.10
2024-02-13T03:20:06.230Z,4.00
2024-02-13T03:23:07.920Z,3.75
2024-02-13T03:26:11.493Z,4.07
2024-02-13T03:29:13.219Z,3.60
2024-02-13T03:32:14.888Z,4.65
2024-02-13T03:35:16.615Z,4.35
2024-02-13T03:38:18.509Z,3.95
2024-02-13T03:41:21.624Z,3.88
2024-02-13T03:44:23.372Z,3.70
2024-02-13T03:47:25.179Z,4.15
2024-02-13T03:50:27.006Z,4.05
2024-02-13T03:53:28.783Z,4.03
2024-02-13T03:56:31.839Z,4.25
2024-02-13T03:59:33.608Z,3.45
2024-02-13T04:02:35.430Z,4.25
2024-02-13T04:05:37.187Z,3.47
2024-02-13T04:08:38.956Z,4.32
2024-02-13T04:11:44.379Z,5.00
2024-02-13T04:14:46.139Z,4.70
2024-02-13T04:17:48.963Z,4.07
2024-02-13T04:20:50.762Z,4.60
2024-02-13T04:23:52.524Z,4.43
2024-02-13T04:26:55.636Z,4.53
2024-02-13T04:29:57.503Z,4.85
2024-02-13T04:32:59.439Z,4.50
2024-02-13T04:36:01.260Z,4.13
2024-02-13T04:39:02.910Z,4.10
2024-02-13T04:42:06.098Z,4.22
2024-02-13T04:45:08.302Z,4.72
2024-02-13T04:48:10.043Z,4.50
2024-02-13T04:51:11.727Z,6.10
2024-02-13T04:54:13.446Z,4.85
2024-02-13T04:57:16.465Z,5.18
2024-02-13T05:00:18.920Z,6.05
2024-02-13T05:03:20.574Z,5.28
2024-02-13T05:06:22.298Z,4.97
2024-02-13T05:09:24.078Z,4.95
2024-02-13T05:12:27.129Z,4.88
2024-02-13T05:15:28.780Z,5.70
2024-02-13T05:18:30.548Z,4.93
2024-02-13T05:21:32.573Z,4.85
2024-02-13T05:24:34.253Z,4.55
2024-02-13T05:27:37.232Z,4.93
2024-02-13T05:30:38.894Z,5.60
2024-02-13T05:33:40.850Z,4.75
2024-02-13T05:36:42.636Z,4.68
2024-02-13T05:39:44.273Z,5.30
2024-02-13T05:42:47.299Z,5.05
2024-02-13T05:45:48.984Z,5.28
2024-02-13T05:48:50.754Z,4.82
2024-02-13T05:51:52.530Z,4.97
2024-02-13T05:54:54.461Z,5.28
2024-02-13T05:57:57.502Z,6.07
2024-02-13T06:00:59.359Z,4.93
2024-02-13T06:04:01.316Z,5.47
2024-02-13T06:07:03.214Z,5.97
2024-02-13T06:10:05.662Z,5.72
2024-02-13T06:13:08.701Z,6.03
2024-02-13T06:16:10.357Z,5.53
2024-02-13T06:19:12.292Z,6.22
2024-02-13T06:22:14.138Z,5.22
2024-02-13T06:25:15.773Z,5.55
2024-02-13T06:28:18.826Z,6.03
2024-02-13T06:31:20.471Z,6.32
2024-02-13T06:34:22.379Z,7.43
2024-02-13T06:37:24.374Z,6.88
2024-02-13T06:40:26.094Z,6.35
2024-02-13T06:43:29.104Z,4.97
2024-02-13T06:46:30.733Z,5.82
2024-02-13T06:49:32.645Z,5.50
2024-02-13T06:52:34.341Z,5.43
2024-02-13T06:55:36.056Z,6.05
2024-02-13T06:58:39.114Z,6.35
2024-02-13T07:01:40.804Z,5.97
2024-02-13T07:04:42.483Z,5.78
2024-02-13T07:07:47.718Z,6.43
2024-02-13T07:10:50.288Z,5.93
2024-02-13T07:13:53.343Z,6.70
2024-02-13T07:16:55.073Z,5.93
2024-02-13T07:19:56.870Z,6.60
2024-02-13T07:22:58.602Z,6.63
2024-02-13T07:26:00.299Z,6.70
2024-02-13T07:29:03.308Z,7.13
2024-02-13T07:32:06.500Z,6.45
2024-02-13T07:35:09.353Z,9.80
2024-02-13T07:38:11.029Z,8.10
2024-02-13T07:41:12.709Z,7.18
2024-02-13T07:44:15.730Z,6.30
2024-02-13T07:47:17.425Z,6.35
2024-02-13T07:50:20.269Z,6.57
2024-02-13T07:53:22.051Z,7.22
2024-02-13T07:56:23.832Z,5.85
2024-02-13T07:59:26.928Z,5.40
2024-02-13T08:02:28.922Z,6.03
2024-02-13T08:05:30.716Z,6.07
2024-02-13T08:08:32.494Z,6.30
2024-02-13T08:11:35.418Z,6.03
2024-02-13T08:14:38.514Z,6.65
2024-02-13T08:17:40.278Z,5.60
2024-02-13T08:20:42.209Z,4.68
2024-02-13T08:23:44.453Z,5.32
2024-02-13T08:26:46.160Z,5.63
2024-02-13T08:29:49.283Z,5.38
2024-02-13T08:32:51.109Z,5.20
2024-02-13T08:35:52.879Z,5.07
2024-02-13T08:38:54.622Z,5.03
2024-02-13T08:41:56.490Z,5.22
2024-02-13T08:44:59.604Z,4.63
2024-02-13T08:48:01.595Z,4.97
2024-02-13T08:51:03.746Z,4.95
2024-02-13T08:54:06.095Z,3.97
2024-02-13T08:57:08.034Z,4.22
2024-02-13T09:00:12.118Z,4.18
2024-02-13T09:03:13.850Z,4.35
2024-02-13T09:06:15.587Z,4.70
2024-02-13T09:09:17.391Z,4.03
2024-02-13T09:12:19.043Z,4.40
2024-02-13T09:15:22.034Z,3.78
2024-02-13T09:18:23.983Z,3.90
2024-02-13T09:21:25.926Z,3.50
2024-02-13T09:24:27.621Z,3.95
2024-02-13T09:27:29.277Z,4.43
2024-02-13T09:30:32.295Z,4.03
2024-02-13T09:33:34.113Z,3.15
2024-02-13T09:36:37.636Z,2.80
2024-02-13T09:39:39.260Z,2.33
2024-02-13T09:42:41.644Z,2.30
2024-02-13T09:45:45.062Z,3.13
2024-02-13T09:48:48.662Z,3.20
2024-02-13T09:51:52.162Z,2.70
2024-02-13T09:54:53.874Z,3.08
2024-02-13T09:57:56.143Z,3.10
2024-02-13T10:01:01.666Z,3.40
2024-02-13T10:04:04.080Z,3.03
2024-02-13T10:07:05.926Z,2.67
2024-02-13T10:10:08.995Z,2.70
2024-02-13T10:13:10.836Z,2.80
2024-02-13T10:16:20.183Z,2.85
2024-02-13T10:19:21.891Z,3.13
2024-02-13T10:22:23.596Z,2.63
2024-02-13T10:25:25.842Z,2.80
2024-02-13T10:28:27.741Z,3.20
2024-02-13T10:31:30.993Z,2.70
2024-02-13T10:34:36.496Z,2.78
2024-02-13T10:37:38.547Z,3.13
2024-02-13T10:40:43.175Z,2.72
2024-02-13T10:43:45.262Z,3.13
2024-02-13T10:46:49.822Z,3.70
2024-02-13T10:49:53.102Z,3.90
2024-02-13T10:52:54.743Z,3.17
2024-02-13T10:55:56.981Z,3.58
2024-02-13T10:58:58.878Z,3.05
2024-02-13T11:02:02.626Z,2.85
2024-02-13T11:05:04.878Z,3.92
2024-02-13T11:08:07.139Z,3.55
2024-02-13T11:11:15.497Z,3.78
2024-02-13T11:14:18.268Z,3.90
2024-02-13T11:17:21.420Z,3.13
2024-02-13T11:20:24.381Z,2.80
2024-02-13T11:23:29.528Z,4.28
2024-02-13T11:26:33.360Z,4.28
2024-02-13T11:29:35.123Z,3.97
2024-02-13T11:32:38.513Z,3.42
2024-02-13T11:38:49.733Z,3.55
2024-02-13T11:41:58.456Z,4.35
2024-02-13T11:45:00.486Z,3.08
2024-02-13T11:48:04.171Z,4.28
2024-02-13T11:51:06.062Z,3.55
2024-02-13T11:54:08.953Z,3.53
2024-02-13T11:57:11.551Z,3.15
2024-02-13T12:00:14.807Z,2.90
2024-02-13T12:03:17.897Z,2.78
2024-02-13T12:06:19.789Z,3.15
2024-02-13T12:09:21.571Z,3.10
2024-02-13T12:12:23.569Z,3.67
2024-02-13T12:15:25.460Z,2.97
2024-02-13T12:18:29.296Z,3.08
2024-02-13T12:21:31.503Z,3.10
2024-02-13T12:24:33.814Z,2.42
2024-02-13T12:27:36.090Z,2.70
2024-02-13T12:30:38.028Z,2.63
2024-02-13T12:33:41.287Z,2.15
2024-02-13T12:36:43.203Z,2.92
2024-02-13T12:39:44.964Z,3.83
2024-02-13T12:42:46.606Z,2.88
2024-02-13T12:45:48.270Z,3.10
2024-02-13T12:48:51.474Z,2.85
2024-02-13T12:51:53.539Z,3.05
2024-02-13T12:54:55.252Z,4.68
2024-02-13T12:57:56.932Z,4.70
2024-02-13T13:00:58.688Z,4.10
2024-02-13T13:04:01.807Z,3.25
2024-02-13T13:07:03.775Z,3.63
2024-02-13T13:10:05.843Z,3.83
2024-02-13T13:13:07.697Z,2.72
2024-02-13T13:16:09.488Z,3.38
2024-02-13T13:19:13.158Z,3.33
2024-02-13T13:22:14.971Z,4.45
2024-02-13T13:25:16.710Z,3.67
2024-02-13T13:28:18.667Z,2.67
2024-02-13T13:31:20.486Z,3.20
2024-02-13T13:34:23.669Z,3.75
2024-02-13T13:37:25.593Z,3.03
2024-02-13T13:40:27.428Z,3.78
2024-02-13T13:43:29.432Z,3.90
2024-02-13T13:46:31.097Z,3.83
2024-02-13T13:49:34.224Z,4.32
2024-02-13T13:52:35.943Z,4.13
2024-02-13T13:55:39.540Z,4.18
2024-02-13T13:58:41.213Z,3.50
2024-02-13T14:01:42.889Z,3.20
2024-02-13T14:04:46.040Z,2.83
2024-02-13T14:07:47.684Z,3.25
2024-02-13T14:10:49.430Z,3.53
2024-02-13T14:13:52.146Z,3.35
2024-02-13T14:16:53.809Z,3.58
2024-02-13T14:19:56.915Z,3.33
2024-02-13T14:22:58.610Z,2.97
2024-02-13T14:26:00.305Z,5.05
2024-02-13T14:29:01.927Z,3.47
2024-02-13T14:32:03.848Z,2.60
2024-02-13T14:35:07.669Z,2.78
2024-02-13T14:38:09.466Z,2.78
2024-02-13T14:41:11.234Z,3.33
2024-02-13T14:44:12.869Z,3.70
2024-02-13T14:47:14.633Z,3.53
2024-02-13T14:50:17.940Z,3.47
2024-02-13T14:53:19.743Z,3.88
2024-02-13T14:56:21.404Z,3.70
2024-02-13T14:59:23.085Z,3.35
2024-02-13T15:02:24.800Z,3.00
2024-02-13T15:05:28.068Z,3.92
2024-02-13T15:08:29.906Z,3.10
2024-02-13T15:11:32.088Z,3.05
2024-02-13T15:14:33.986Z,3.13
2024-02-13T15:17:35.795Z,2.97
2024-02-13T15:20:38.851Z,2.88
2024-02-13T15:23:40.542Z,2.65
2024-02-13T15:26:42.281Z,2.75
2024-02-13T15:29:44.045Z,2.72
2024-02-13T15:32:45.904Z,2.47
2024-02-13T15:35:49.070Z,2.42
2024-02-13T15:38:50.845Z,2.63
2024-02-13T15:41:52.587Z,2.35
2024-02-13T15:44:54.316Z,2.70
2024-02-13T15:47:56.113Z,2.25
2024-02-13T15:50:59.328Z,2.10
2024-02-13T15:54:01.098Z,2.03
2024-02-13T15:57:02.928Z,2.17
2024-02-13T16:00:06.064Z,2.42
2024-02-13T16:03:07.850Z,2.30
2024-02-13T16:06:11.036Z,2.05
2024-02-13T16:09:13.633Z,1.95
2024-02-13T16:12:15.329Z,2.28
2024-02-13T16:15:17.109Z,2.17
2024-02-13T16:18:22.610Z,2.67
2024-02-13T16:21:25.724Z,2.55
2024-02-13T16:24:27.445Z,2.33
2024-02-13T16:27:29.151Z,2.47
2024-02-13T16:30:30.817Z,2.22
2024-02-13T16:33:32.738Z,2.67
2024-02-13T16:36:35.906Z,2.40
2024-02-13T16:39:37.572Z,2.75
2024-02-13T16:42:39.233Z,2.30
2024-02-13T16:45:40.935Z,2.70
2024-02-13T16:48:42.782Z,2.95
2024-02-13T16:51:45.877Z,2.92
2024-02-13T16:54:49.514Z,2.72
2024-02-13T16:57:52.646Z,3.03
2024-02-13T17:00:54.317Z,2.97
2024-02-13T17:03:56.001Z,3.25
2024-02-13T17:06:59.305Z,2.97
2024-02-13T17:10:01.121Z,3.38
2024-02-13T17:13:02.819Z,3.22
2024-02-13T17:16:05.077Z,2.75
2024-02-13T17:19:07.051Z,2.72
2024-02-13T17:22:10.248Z,3.58
2024-02-13T17:25:13.018Z,3.53
2024-02-13T17:28:14.821Z,3.33
2024-02-13T17:31:16.861Z,3.30
2024-02-13T17:34:18.841Z,3.58
2024-02-13T17:37:22.188Z,4.18
2024-02-13T17:40:23.903Z,3.72
2024-02-13T17:43:25.568Z,3.28
2024-02-13T17:46:27.208Z,3.50
2024-02-13T17:49:28.936Z,3.22
2024-02-13T17:52:32.019Z,3.75
2024-02-13T17:55:33.733Z,5.00
2024-02-13T17:58:35.374Z,4.10
2024-02-13T18:01:37.064Z,4.53
2024-02-13T18:04:38.699Z,4.97
2024-02-13T18:07:41.973Z,5.60
2024-02-13T18:10:43.627Z,4.38
2024-02-13T18:13:45.288Z,4.57
2024-02-13T18:16:46.916Z,4.38
2024-02-13T18:19:48.677Z,3.70
2024-02-13T18:22:51.715Z,4.20
2024-02-13T18:25:53.441Z,3.95
2024-02-13T18:28:55.688Z,4.40
2024-02-13T18:31:58.449Z,4.50
2024-02-13T18:35:00.414Z,3.83
2024-02-13T18:38:03.506Z,4.32
2024-02-13T18:41:05.185Z,4.53
2024-02-13T18:44:07.010Z,4.90
2024-02-13T18:47:08.650Z,5.20
2024-02-13T18:50:10.345Z,4.72
2024-02-13T18:53:13.365Z,6.80
2024-02-13T18:56:16.095Z,5.35
2024-02-13T18:59:17.783Z,4.97
2024-02-13T19:02:20.533Z,4.68
2024-02-13T19:05:22.520Z,4.35
2024-02-13T19:08:25.686Z,5.55
2024-02-13T19:11:27.377Z,5.57
2024-02-13T19:14:29.157Z,4.47
2024-02-13T19:17:31.046Z,4.88
2024-02-13T19:20:32.804Z,3.28
2024-02-13T19:23:35.991Z,3.20
2024-02-13T19:26:38.034Z,3.35
2024-02-13T19:29:40.519Z,3.97
2024-02-13T19:32:42.353Z,4.15
2024-02-13T19:35:44.184Z,4.57
2024-02-13T19:38:47.364Z,4.53
2024-02-13T19:41:49.118Z,5.13
2024-02-13T19:44:50.868Z,4.30
2024-02-13T19:47:52.657Z,4.22
2024-02-13T19:50:54.377Z,2.75
2024-02-13T19:53:57.471Z,2.90
2024-02-13T19:56:59.287Z,2.53
2024-02-13T20:00:01.165Z,3.65
2024-02-13T20:03:03.224Z,3.10
2024-02-13T20:06:05.338Z,2.83
2024-02-13T20:09:08.446Z,2.78
2024-02-13T20:12:10.310Z,2.95
2024-02-13T20:15:12.200Z,3.08
2024-02-13T20:18:13.989Z,3.47
2024-02-13T20:21:15.788Z,3.22
2024-02-13T20:24:18.876Z,3.60
2024-02-13T20:27:20.532Z,3.53
2024-02-13T20:30:22.201Z,3.72
2024-02-13T20:33:23.937Z,3.85
2024-02-13T20:36:25.734Z,3.85
2024-02-13T20:39:28.750Z,3.50
2024-02-13T20:42:30.397Z,3.75
2024-02-13T20:45:32.105Z,5.43
2024-02-13T20:48:33.907Z,5.70
2024-02-13T20:51:36.267Z,3.65
2024-02-13T20:54:39.256Z,4.03
2024-02-13T20:57:40.995Z,3.70
2024-02-13T21:00:42.717Z,3.55
2024-02-13T21:03:44.564Z,3.67
2024-02-13T21:06:47.982Z,4.07
2024-02-13T21:09:51.315Z,5.70
2024-02-13T21:12:52.964Z,7.85
2024-02-13T21:15:54.614Z,8.05
2024-02-13T21:18:56.941Z,7.53
2024-02-13T21:21:58.704Z,8.70
2024-02-13T21:25:01.702Z,9.55
2024-02-13T21:28:03.609Z,6.00
2024-02-13T21:31:05.307Z,5.05
2024-02-13T21:34:07.550Z,5.93
2024-02-13T21:37:09.378Z,5.60
2024-02-13T21:40:12.910Z,6.35
2024-02-13T21:43:14.595Z,5.80
2024-02-13T21:46:16.275Z,5.63
2024-02-13T21:49:18.116Z,5.00
2024-02-13T21:52:19.857Z,5.55
2024-02-13T21:55:22.893Z,4.82
2024-02-13T21:58:24.550Z,5.95
2024-02-13T22:01:26.222Z,5.45
2024-02-13T22:04:29.945Z,5.25
2024-02-13T22:07:32.929Z,5.55
2024-02-13T22:10:36.040Z,5.93
2024-02-13T22:13:37.721Z,6.30
2024-02-13T22:16:39.375Z,5.90
2024-02-13T22:19:41.130Z,5.80
2024-02-13T22:22:42.909Z,5.88
2024-02-13T22:25:45.972Z,5.80
2024-02-13T22:28:47.634Z,7.45
2024-02-13T22:31:49.297Z,7.43
2024-02-13T22:34:53.415Z,6.30
2024-02-13T22:37:57.201Z,6.68
2024-02-13T22:41:00.272Z,6.28
2024-02-13T22:44:02.002Z,6.10
2024-02-13T22:47:03.734Z,5.97
2024-02-13T22:50:06.051Z,6.57
2024-02-13T22:53:07.822Z,7.40
2024-02-13T22:56:10.856Z,7.97
2024-02-13T22:59:12.782Z,7.88
2024-02-13T23:02:14.452Z,8.80
2024-02-13T23:05:16.292Z,9.02
2024-02-13T23:08:17.948Z,10.35
2024-02-13T23:11:20.983Z,10.05
2024-02-13T23:14:22.798Z,10.38
2024-02-13T23:17:24.533Z,11.50
2024-02-13T23:20:26.426Z,11.02
2024-02-13T23:23:28.101Z,10.18
2024-02-13T23:26:31.128Z,8.57
2024-02-13T23:29:32.847Z,10.38
2024-02-13T23:32:34.589Z,11.35
2024-02-13T23:35:36.340Z,9.70
2024-02-13T23:38:38.140Z,8.88
2024-02-13T23:41:41.228Z,10.00
2024-02-13T23:44:42.948Z,10.27
2024-02-13T23:47:44.938Z,11.75
2024-02-13T23:50:46.725Z,10.73
2024-02-13T23:53:48.464Z,9.95
2024-02-13T23:56:51.607Z,9.82
2024-02-13T23:59:53.361Z,9.13
